createdAt,value
2023-02-02T00:00:50.823Z,2.40
2023-02-02T00:03:50.742Z,2.40
2023-02-02T00:06:47.921Z,2.40
2023-02-02T00:09:44.679Z,2.40
2023-02-02T00:12:41.407Z,2.50
2023-02-02T00:15:38.406Z,2.50
2023-02-02T00:18:35.154Z,2.50
2023-02-02T00:21:32.077Z,2.40
2023-02-02T00:24:28.836Z,2.50
2023-02-02T00:27:25.578Z,2.40
2023-02-02T00:30:22.547Z,2.40
2023-02-02T00:33:19.314Z,2.40
2023-02-02T00:36:16.993Z,2.40
2023-02-02T00:39:19.788Z,2.30
2023-02-02T00:42:16.535Z,2.40
2023-02-02T00:45:16.776Z,2.30
2023-02-02T00:48:13.532Z,2.40
2023-02-02T00:51:10.358Z,2.50
2023-02-02T00:54:07.123Z,2.50
2023-02-02T00:57:03.931Z,2.60
2023-02-02T01:00:00.746Z,2.50
2023-02-02T01:03:04.169Z,2.50
2023-02-02T01:06:00.916Z,2.50
2023-02-02T01:08:57.773Z,2.50
2023-02-02T01:11:54.599Z,2.50
2023-02-02T01:14:51.428Z,2.40
2023-02-02T01:17:48.149Z,2.40
2023-02-02T01:20:44.919Z,2.50
2023-02-02T01:23:41.687Z,2.40
2023-02-02T01:26:38.446Z,2.50
2023-02-02T01:29:35.259Z,2.50
2023-02-02T01:32:31.989Z,2.40
2023-02-02T01:35:28.732Z,2.40
2023-02-02T01:38:25.480Z,2.50
2023-02-02T01:41:24.222Z,2.40
2023-02-02T01:44:58.050Z,2.40
2023-02-02T01:47:58.378Z,2.40
2023-02-02T01:51:02.004Z,2.40
2023-02-02T01:53:59.620Z,2.30
2023-02-02T01:57:00.552Z,2.30
2023-02-02T01:59:59.410Z,2.30
2023-02-02T02:03:04.760Z,2.30
2023-02-02T02:06:07.166Z,2.30
2023-02-02T02:09:05.742Z,2.30
2023-02-02T02:12:02.499Z,2.20
2023-02-02T02:15:17.535Z,2.20
2023-02-02T02:18:31.603Z,2.10
2023-02-02T02:22:21.050Z,2.10
2023-02-02T02:26:11.639Z,2.10
2023-02-02T02:29:45.615Z,2.20
2023-02-02T02:32:52.358Z,2.30
2023-02-02T02:36:17.346Z,2.30
2023-02-02T02:39:28.949Z,2.40
2023-02-02T02:42:29.901Z,2.40
2023-02-02T02:45:27.996Z,2.30
2023-02-02T02:48:24.980Z,2.30
2023-02-02T02:51:40.151Z,2.30
2023-02-02T02:54:49.692Z,2.30
2023-02-02T02:58:15.565Z,2.50
2023-02-02T03:01:25.482Z,2.50
2023-02-02T03:04:47.475Z,2.50
2023-02-02T03:08:26.473Z,2.40
2023-02-02T03:11:23.255Z,2.40
2023-02-02T03:14:19.995Z,2.40
2023-02-02T03:17:16.724Z,2.40
2023-02-02T03:20:13.623Z,2.40
2023-02-02T03:23:10.454Z,2.40
2023-02-02T03:26:07.393Z,2.40
2023-02-02T03:29:04.154Z,2.40
2023-02-02T03:32:00.939Z,2.30
2023-02-02T03:34:57.697Z,2.30
2023-02-02T03:37:54.451Z,2.30
2023-02-02T03:40:51.727Z,2.30
2023-02-02T03:43:48.487Z,2.30
2023-02-02T03:46:45.274Z,2.40
2023-02-02T03:49:42.035Z,2.30
2023-02-02T03:52:38.813Z,2.20
2023-02-02T03:55:35.578Z,2.30
2023-02-02T03:58:32.447Z,2.20
2023-02-02T04:01:30.075Z,2.20
2023-02-02T04:04:26.936Z,2.20
2023-02-02T04:07:23.679Z,2.10
2023-02-02T04:10:20.545Z,2.10
2023-02-02T04:13:17.290Z,2.10
2023-02-02T04:16:14.039Z,2.00
2023-02-02T04:19:12.799Z,2.00
2023-02-02T04:22:09.547Z,2.10
2023-02-02T04:25:06.680Z,2.00
2023-02-02T04:28:03.453Z,2.00
2023-02-02T04:31:00.280Z,2.00
2023-02-02T04:33:57.129Z,2.00
2023-02-02T04:36:53.870Z,2.00
2023-02-02T04:39:50.713Z,2.10
2023-02-02T04:42:47.477Z,2.00
2023-02-02T04:45:44.983Z,2.10
2023-02-02T04:48:42.246Z,2.20
2023-02-02T04:51:39.610Z,2.20
2023-02-02T04:54:36.347Z,2.20
2023-02-02T04:57:33.330Z,2.30
2023-02-02T05:00:30.084Z,2.30
2023-02-02T05:03:26.902Z,2.30
2023-02-02T05:06:23.949Z,2.30
2023-02-02T05:09:20.785Z,2.20
2023-02-02T05:12:17.545Z,2.30
2023-02-02T05:15:14.302Z,2.10
2023-02-02T05:18:11.047Z,2.20
2023-02-02T05:21:08.036Z,2.20
2023-02-02T05:24:05.036Z,2.10
2023-02-02T05:27:01.775Z,2.10
2023-02-02T05:29:59.235Z,2.20
2023-02-02T05:32:55.993Z,2.20
2023-02-02T05:35:52.864Z,2.20
2023-02-02T05:38:49.615Z,2.10
2023-02-02T05:41:46.991Z,2.10
2023-02-02T05:44:43.784Z,2.10
2023-02-02T05:47:40.533Z,2.00
2023-02-02T05:50:37.298Z,2.00
2023-02-02T05:53:34.034Z,2.00
2023-02-02T05:56:30.836Z,2.10
2023-02-02T05:59:29.213Z,2.10
2023-02-02T06:02:25.969Z,2.00
2023-02-02T06:05:23.065Z,2.00
2023-02-02T06:08:20.007Z,2.20
2023-02-02T06:11:17.926Z,2.20
2023-02-02T06:14:14.888Z,2.10
2023-02-02T06:17:11.646Z,2.10
2023-02-02T06:20:08.998Z,2.10
2023-02-02T06:23:05.779Z,2.00
2023-02-02T06:26:03.564Z,2.00
2023-02-02T06:29:00.306Z,2.00
2023-02-02T06:31:57.161Z,2.10
2023-02-02T06:34:53.990Z,2.00
2023-02-02T06:37:50.723Z,2.00
2023-02-02T06:40:47.471Z,1.90
2023-02-02T06:43:44.379Z,1.90
2023-02-02T06:46:42.218Z,1.90
2023-02-02T06:49:38.974Z,1.90
2023-02-02T06:52:35.732Z,2.00
2023-02-02T06:55:32.581Z,2.00
2023-02-02T06:58:30.568Z,2.00
2023-02-02T07:01:27.358Z,2.00
2023-02-02T07:04:24.199Z,2.00
2023-02-02T07:07:20.971Z,2.00
2023-02-02T07:11:13.447Z,2.00
2023-02-02T07:13:35.600Z,2.00
2023-02-02T07:16:32.352Z,2.20
2023-02-02T07:19:29.125Z,2.20
2023-02-02T07:22:25.883Z,2.20
2023-02-02T07:25:22.798Z,2.20
2023-02-02T07:28:19.760Z,2.20
2023-02-02T07:31:21.820Z,2.20
2023-02-02T07:34:18.627Z,2.10
2023-02-02T07:37:15.384Z,2.10
2023-02-02T07:40:12.565Z,2.10
2023-02-02T07:43:09.710Z,2.10
2023-02-02T07:46:10.065Z,2.00
2023-02-02T07:49:06.842Z,2.00
2023-02-02T07:52:03.604Z,2.00
2023-02-02T07:55:13.877Z,2.00
2023-02-02T07:58:11.399Z,2.00
2023-02-02T08:01:09.736Z,1.90
2023-02-02T08:04:06.601Z,2.00
2023-02-02T08:07:03.424Z,2.00
2023-02-02T08:10:00.177Z,2.00
2023-02-02T08:12:56.955Z,2.00
2023-02-02T08:15:53.789Z,2.00
2023-02-02T08:18:50.903Z,1.90
2023-02-02T08:21:47.680Z,1.90
2023-02-02T08:24:44.423Z,2.00
2023-02-02T08:27:41.182Z,2.00
2023-02-02T08:30:37.977Z,2.00
2023-02-02T08:33:35.075Z,2.00
2023-02-02T08:36:31.884Z,2.00
2023-02-02T08:39:28.652Z,1.90
2023-02-02T08:42:25.413Z,1.90
2023-02-02T08:46:04.360Z,1.80
2023-02-02T08:48:39.460Z,1.80
2023-02-02T08:51:36.315Z,1.90
2023-02-02T08:54:33.085Z,1.90
2023-02-02T08:57:32.554Z,1.90
2023-02-02T09:00:29.320Z,1.90
2023-02-02T09:03:26.083Z,1.80
2023-02-02T09:06:26.079Z,1.70
2023-02-02T09:09:22.884Z,1.70
2023-02-02T09:12:19.648Z,1.80
2023-02-02T09:15:16.388Z,1.80
2023-02-02T09:18:13.167Z,1.80
2023-02-02T09:21:12.738Z,1.80
2023-02-02T09:24:11.924Z,1.70
2023-02-02T09:27:08.679Z,1.80
2023-02-02T09:30:05.706Z,1.80
2023-02-02T09:33:02.525Z,1.80
2023-02-02T09:36:06.401Z,1.80
2023-02-02T09:39:04.295Z,1.90
2023-02-02T09:42:14.338Z,1.90
2023-02-02T09:45:26.161Z,1.90
2023-02-02T09:48:44.711Z,2.00
2023-02-02T09:51:47.247Z,1.90
2023-02-02T09:54:47.020Z,2.00
2023-02-02T09:57:52.854Z,1.90
2023-02-02T10:00:53.271Z,1.90
2023-02-02T10:04:06.573Z,1.90
2023-02-02T10:07:21.419Z,1.90
2023-02-02T10:10:26.653Z,1.90
2023-02-02T10:13:32.221Z,1.90
2023-02-02T10:16:29.827Z,2.00
2023-02-02T10:19:29.255Z,2.00
2023-02-02T10:22:29.375Z,1.90
2023-02-02T10:25:27.706Z,2.00
2023-02-02T10:28:42.757Z,2.00
2023-02-02T10:31:58.027Z,2.10
2023-02-02T10:35:13.579Z,2.10
2023-02-02T10:38:27.377Z,2.00
2023-02-02T10:41:39.084Z,2.00
2023-02-02T10:44:35.720Z,2.00
2023-02-02T10:47:33.431Z,2.00
2023-02-02T10:50:30.174Z,2.10
2023-02-02T10:53:29.080Z,2.00
2023-02-02T10:56:37.503Z,2.20
2023-02-02T10:59:41.517Z,2.20
2023-02-02T11:02:38.318Z,2.20
2023-02-02T11:05:53.347Z,2.20
2023-02-02T11:09:00.876Z,2.20
2023-02-02T11:12:03.708Z,2.20
2023-02-02T11:15:05.321Z,2.30
2023-02-02T11:18:27.022Z,2.30
2023-02-02T11:21:28.446Z,2.30
2023-02-02T11:24:44.978Z,2.30
2023-02-02T11:27:43.321Z,2.40
2023-02-02T11:30:40.326Z,2.30
2023-02-02T11:33:37.222Z,2.40
2023-02-02T11:36:33.971Z,2.40
2023-02-02T11:39:30.930Z,2.40
2023-02-02T11:42:28.989Z,2.30
2023-02-02T11:45:41.660Z,2.30
2023-02-02T11:48:39.530Z,2.40
2023-02-02T11:51:36.307Z,2.40
2023-02-02T11:54:35.792Z,2.50
2023-02-02T11:57:32.716Z,2.40
2023-02-02T12:00:30.529Z,2.40
2023-02-02T12:03:36.887Z,2.40
2023-02-02T12:06:34.878Z,2.50
2023-02-02T12:09:31.643Z,2.50
2023-02-02T12:12:30.941Z,2.60
2023-02-02T12:15:42.897Z,2.60
2023-02-02T12:19:04.618Z,2.60
2023-02-02T12:22:21.508Z,2.60
2023-02-02T12:25:34.919Z,2.50
2023-02-02T12:28:44.735Z,2.50
2023-02-02T12:32:04.322Z,2.60
2023-02-02T12:35:24.127Z,2.50
2023-02-02T12:38:57.831Z,2.60
2023-02-02T12:42:20.512Z,2.50
2023-02-02T12:45:30.349Z,2.50
2023-02-02T12:48:45.412Z,2.40
2023-02-02T12:52:00.587Z,2.40
2023-02-02T12:55:24.300Z,2.50
2023-02-02T12:58:47.888Z,2.50
2023-02-02T13:01:59.015Z,2.50
2023-02-02T13:05:15.875Z,2.50
2023-02-02T13:08:30.441Z,2.60
2023-02-02T13:11:40.598Z,2.60
2023-02-02T13:14:44.600Z,2.60
2023-02-02T13:17:56.274Z,2.60
2023-02-02T13:21:23.864Z,2.70
2023-02-02T13:24:26.592Z,2.60
2023-02-02T13:27:23.862Z,2.70
2023-02-02T13:30:29.310Z,2.70
2023-02-02T13:33:35.455Z,2.70
2023-02-02T13:36:37.458Z,2.80
2023-02-02T13:39:39.434Z,2.80
2023-02-02T13:43:11.392Z,2.80
2023-02-02T13:46:25.227Z,2.90
2023-02-02T13:49:29.589Z,2.90
2023-02-02T13:52:47.124Z,2.80
2023-02-02T13:56:02.819Z,2.80
2023-02-02T13:59:18.136Z,2.80
2023-02-02T14:02:25.841Z,2.80
2023-02-02T14:05:28.292Z,2.80
2023-02-02T14:08:25.919Z,2.70
2023-02-02T14:11:57.055Z,2.80
2023-02-02T14:14:53.850Z,2.90
2023-02-02T14:17:53.048Z,2.90
2023-02-02T14:20:49.982Z,3.00
2023-02-02T14:23:54.433Z,2.90
2023-02-02T14:26:59.323Z,2.80
2023-02-02T14:29:56.025Z,2.80
2023-02-02T14:32:52.766Z,2.70
2023-02-02T14:35:49.374Z,2.70
2023-02-02T14:38:59.744Z,2.80
2023-02-02T14:43:03.182Z,2.80
2023-02-02T14:46:15.233Z,2.80
2023-02-02T14:49:14.773Z,2.70
2023-02-02T14:52:21.918Z,2.70
2023-02-02T14:55:22.642Z,2.70
2023-02-02T14:58:40.450Z,2.70
2023-02-02T15:01:38.864Z,2.60
2023-02-02T15:04:36.047Z,2.60
2023-02-02T15:07:32.725Z,2.70
2023-02-02T15:10:57.453Z,2.70
2023-02-02T15:14:07.407Z,2.70
2023-02-02T15:17:07.501Z,2.60
2023-02-02T15:20:35.134Z,2.70
2023-02-02T15:23:41.529Z,2.60
2023-02-02T15:26:42.795Z,2.70
2023-02-02T15:29:47.044Z,2.70
2023-02-02T15:32:44.686Z,2.70
2023-02-02T15:35:41.652Z,2.60
2023-02-02T15:38:41.762Z,2.60
2023-02-02T15:41:45.196Z,2.50
2023-02-02T15:44:42.003Z,2.50
2023-02-02T15:47:41.872Z,2.50
2023-02-02T15:50:46.313Z,2.40
2023-02-02T15:53:43.033Z,2.40
2023-02-02T15:56:39.767Z,2.30
2023-02-02T15:59:40.759Z,2.30
2023-02-02T16:02:41.445Z,2.30
2023-02-02T16:05:38.075Z,2.30
2023-02-02T16:08:37.755Z,2.20
2023-02-02T16:11:41.224Z,2.20
2023-02-02T16:14:39.661Z,2.20
2023-02-02T16:17:36.438Z,2.10
2023-02-02T16:20:36.070Z,2.00
2023-02-02T16:23:35.213Z,2.00
2023-02-02T16:26:33.266Z,2.00
2023-02-02T16:29:30.482Z,2.00
2023-02-02T16:32:36.103Z,2.00
2023-02-02T16:35:36.609Z,1.90
2023-02-02T16:38:36.241Z,1.80
2023-02-02T16:41:35.022Z,1.90
2023-02-02T16:44:43.582Z,2.00
2023-02-02T16:47:40.344Z,1.90
2023-02-02T16:50:37.166Z,1.90
2023-02-02T16:53:34.772Z,1.90
2023-02-02T16:56:45.737Z,2.00
2023-02-02T16:59:47.007Z,1.90
2023-02-02T17:02:48.140Z,1.80
2023-02-02T17:05:50.967Z,1.70
2023-02-02T17:08:47.858Z,1.80
2023-02-02T17:12:02.713Z,1.80
2023-02-02T17:15:05.107Z,1.70
2023-02-02T17:18:03.427Z,1.70
2023-02-02T17:21:04.245Z,1.60
2023-02-02T17:24:01.175Z,1.70
2023-02-02T17:26:58.117Z,1.70
2023-02-02T17:29:55.467Z,1.70
2023-02-02T17:32:52.248Z,1.70
2023-02-02T17:35:56.712Z,1.70
2023-02-02T17:38:53.592Z,1.80
2023-02-02T17:41:51.496Z,1.70
2023-02-02T17:44:48.430Z,1.70
2023-02-02T17:47:45.281Z,1.60
2023-02-02T17:50:43.089Z,1.70
2023-02-02T17:53:39.914Z,1.60
2023-02-02T17:56:36.658Z,1.60
2023-02-02T17:59:33.440Z,1.60
2023-02-02T18:02:30.276Z,1.50
2023-02-02T18:05:27.354Z,1.50
2023-02-02T18:08:24.440Z,1.40
2023-02-02T18:11:21.502Z,1.40
2023-02-02T18:14:18.311Z,1.40
2023-02-02T18:17:15.112Z,1.40
2023-02-02T18:20:15.170Z,1.40
2023-02-02T18:23:12.245Z,1.40
2023-02-02T18:26:17.663Z,1.50
2023-02-02T18:29:14.482Z,1.50
2023-02-02T18:32:11.276Z,1.50
2023-02-02T18:35:10.569Z,1.50
2023-02-02T18:38:07.310Z,1.50
2023-02-02T18:41:04.138Z,1.60
2023-02-02T18:44:01.276Z,1.60
2023-02-02T18:46:58.016Z,1.50
2023-02-02T18:49:54.786Z,1.50
2023-02-02T18:52:51.579Z,1.40
2023-02-02T18:55:48.381Z,1.50
2023-02-02T18:58:45.175Z,1.50
2023-02-02T19:01:42.361Z,1.40
2023-02-02T19:04:39.893Z,1.40
2023-02-02T19:07:54.922Z,1.30
2023-02-02T19:10:58.676Z,1.40
2023-02-02T19:13:56.193Z,1.40
2023-02-02T19:16:55.826Z,1.40
2023-02-02T19:19:52.867Z,1.40
2023-02-02T19:22:49.677Z,1.30
2023-02-02T19:25:51.254Z,1.30
2023-02-02T19:28:49.164Z,1.30
2023-02-02T19:31:46.046Z,1.20
2023-02-02T19:34:42.867Z,1.20
2023-02-02T19:37:41.933Z,1.20
2023-02-02T19:40:39.892Z,1.20
2023-02-02T19:43:36.656Z,1.20
2023-02-02T19:46:39.046Z,1.20
2023-02-02T19:49:36.944Z,1.30
2023-02-02T19:52:33.779Z,1.30
2023-02-02T19:55:36.465Z,1.30
2023-02-02T19:58:37.470Z,1.40
2023-02-02T20:01:35.333Z,1.50
2023-02-02T20:04:32.110Z,1.40
2023-02-02T20:07:29.074Z,1.40
2023-02-02T20:10:30.209Z,1.40
2023-02-02T20:13:43.402Z,1.50
2023-02-02T20:16:41.913Z,1.40
2023-02-02T20:19:41.378Z,1.40
2023-02-02T20:22:38.140Z,1.30
2023-02-02T20:25:35.149Z,1.20
2023-02-02T20:28:44.679Z,1.30
2023-02-02T20:31:41.620Z,1.30
2023-02-02T20:34:42.372Z,1.30
2023-02-02T20:37:39.284Z,1.30
2023-02-02T20:40:36.032Z,1.30
2023-02-02T20:43:32.818Z,1.30
2023-02-02T20:46:29.583Z,1.30
2023-02-02T20:49:28.021Z,1.30
2023-02-02T20:52:26.163Z,1.30
2023-02-02T20:55:23.633Z,1.30
2023-02-02T20:58:21.787Z,1.40
2023-02-02T21:01:19.426Z,1.40
2023-02-02T21:04:17.271Z,1.30
2023-02-02T21:07:16.886Z,1.40
2023-02-02T21:10:13.769Z,1.40
2023-02-02T21:13:10.508Z,1.40
2023-02-02T21:16:07.281Z,1.30
2023-02-02T21:19:04.080Z,1.20
2023-02-02T21:22:00.824Z,1.30
2023-02-02T21:24:57.616Z,1.20
2023-02-02T21:27:55.251Z,1.20
2023-02-02T21:30:52.110Z,1.10
2023-02-02T21:33:50.665Z,1.20
2023-02-02T21:36:48.471Z,1.30
2023-02-02T21:39:49.577Z,1.40
2023-02-02T21:42:49.606Z,1.40
2023-02-02T21:45:51.330Z,1.40
2023-02-02T21:48:48.165Z,1.40
2023-02-02T21:51:44.919Z,1.40
2023-02-02T21:54:42.163Z,1.40
2023-02-02T21:57:38.900Z,1.40
2023-02-02T22:00:35.659Z,1.40
2023-02-02T22:03:37.968Z,1.40
2023-02-02T22:06:38.988Z,1.40
2023-02-02T22:09:40.489Z,1.50
2023-02-02T22:12:37.393Z,1.60
2023-02-02T22:15:34.739Z,1.50
2023-02-02T22:18:32.436Z,1.40
2023-02-02T22:21:32.050Z,1.40
2023-02-02T22:24:28.770Z,1.50
2023-02-02T22:27:36.284Z,1.40
2023-02-02T22:30:40.821Z,1.40
2023-02-02T22:33:38.031Z,1.50
2023-02-02T22:36:34.893Z,1.40
2023-02-02T22:39:31.730Z,1.40
2023-02-02T22:42:28.495Z,1.40
2023-02-02T22:45:25.411Z,1.40
2023-02-02T22:48:22.194Z,1.40
2023-02-02T22:51:18.992Z,1.40
2023-02-02T22:54:15.715Z,1.50
2023-02-02T22:57:12.505Z,1.50
2023-02-02T23:00:17.866Z,1.40
2023-02-02T23:03:14.638Z,1.40
2023-02-02T23:06:11.404Z,1.40
2023-02-02T23:09:08.173Z,1.40
2023-02-02T23:12:05.167Z,1.50
2023-02-02T23:15:02.040Z,1.50
2023-02-02T23:17:58.979Z,1.50
2023-02-02T23:20:55.727Z,1.50
2023-02-02T23:23:52.506Z,1.50
2023-02-02T23:26:49.346Z,1.50
2023-02-02T23:29:46.082Z,1.50
2023-02-02T23:32:42.979Z,1.50
2023-02-02T23:35:39.724Z,1.40
2023-02-02T23:38:36.522Z,1.40
2023-02-02T23:41:33.365Z,1.50
2023-02-02T23:44:30.125Z,1.40
2023-02-02T23:47:26.898Z,1.40
2023-02-02T23:50:23.824Z,1.40
2023-02-02T23:53:20.970Z,1.50
2023-02-02T23:56:17.994Z,1.50
2023-02-02T23:59:14.735Z,1.50
